Main page
METAR-TAF:

METAR-TAF

Airports :

Gorna Oryahovitsa Airport

Veliko Tarnovo, Bulgaria

latitude: 43-09N, longitude: 025-36E, elevation: 87 m

Current weather observation

The report was made 17 minutes ago, at 00:00 UTC
Wind 5 kt from the West/Northwest
Temperature 2°C
Humidity 100%
Pressure 1032 hPa
Visibility 10 km or more
Overcast at a height of 4900 ft

METAR: LBGO 160000Z AUTO 29005KT 9999 OVC049 02/02 Q1032 R99/19//95

Time: 02:17 (00:17 UTC)

Forecast

The report was made 1 hour and 17 minutes ago, at 23:00 UTC
Forecast valid from 16 at 00 UTC to 16 at 24 UTC
Wind 8 kt from the West
Visibility 10 km or more
Scattered clouds at a height of 2000 ft
Broken clouds at a height of 4000 ft
Temporary
from 16 at 02 UTC to 16 at 07 UTC
Visibility: 3000 m
Scattered clouds at a height of 2000 ft
mist

TAF: LBGO 152300Z 1600/1624 27008KT 9999 SCT020 BKN040 TEMPO 1602/1607 3000 BR SCT020

Weather observations and forecasts of more than 4000 airports (METAR and TAF reports).

The available stations are represented by yellow and red dots on the map.

Hover mouse over dot to see the name of the station.

Then click to see weather observations and forecasts.

To change the map : click on the green buttons with a black cross to zoom in, on the green button with a dash to zoom out, or on the green arrows for adjacent maps.


METAR-TAF: